Time;durP1;ratioP1;P1;durP2;ratioP2;P2;SDS_P1;SDS_P2;PMS_P1;PMS_P2;Temp;Humidity;BMP_temperature;BMP_pressure;BME280_temperature;BME280_humidity;BME280_pressure;Samples;Min_cycle;Max_cycle;Signal;HPM_P1;HPM_P2
2023/04/05 00:01:29;;;;;;;;;;;3.40;72.30;;;;;;5031520;28;19940;-69
2023/04/05 00:03:58;;;;;;;;;;;3.40;72.30;;;;;;5024531;28;19936;-68
2023/04/05 00:06:25;;;;;;;;;;;3.40;72.30;;;;;;5026052;28;19929;-67
2023/04/05 00:08:54;;;;;;;;;;;3.40;72.40;;;;;;5031560;28;19921;-70
2023/04/05 00:11:21;;;;;;;;;;;3.30;72.50;;;;;;5037766;28;19921;-68
2023/04/05 00:13:48;;;;;;;;;;;3.30;72.70;;;;;;5035615;28;20398;-68
2023/04/05 00:16:15;;;;;;;;;;;3.30;72.70;;;;;;5036663;28;19925;-68
2023/04/05 00:18:44;;;;;;;;;;;3.20;72.70;;;;;;5036646;28;20285;-69
2023/04/05 00:21:13;;;;;;;;;;;3.10;72.80;;;;;;5036090;28;19960;-69
2023/04/05 00:23:40;;;;;;;;;;;3.10;72.90;;;;;;5036175;28;19928;-69
2023/04/05 00:26:07;;;;;;;;;;;3.10;73.00;;;;;;5037801;28;20011;-69
2023/04/05 00:28:34;;;;;;;;;;;3.10;73.10;;;;;;5037755;28;21174;-69
2023/04/05 00:31:00;;;;;;;;;;;3.10;73.10;;;;;;5036037;28;20399;-68
2023/04/05 00:33:27;;;;;;;;;;;3.10;73.10;;;;;;5038883;28;19928;-69
2023/04/05 00:35:54;;;;;;;;;;;3.10;73.10;;;;;;5034306;28;19929;-69
2023/04/05 00:38:22;;;;;;;;;;;3.00;73.40;;;;;;5036292;28;19950;-68
2023/04/05 00:40:48;;;;;;;;;;;3.00;73.50;;;;;;5003649;28;19925;-70
2023/04/05 00:43:15;;;;;;;;;;;3.00;73.50;;;;;;5037447;28;19932;-70
2023/04/05 00:45:42;;;;;;;;;;;3.00;73.50;;;;;;5036582;28;19920;-69
2023/04/05 00:48:09;;;;;;;;;;;3.00;73.60;;;;;;5030600;28;19951;-68
2023/04/05 00:50:35;;;;;;;;;;;2.90;73.60;;;;;;5033802;28;19921;-69
2023/04/05 00:53:02;;;;;;;;;;;2.80;73.90;;;;;;5033747;28;20316;-68
2023/04/05 00:55:32;;;;;;;;;;;2.80;73.90;;;;;;5036759;28;19924;-68
2023/04/05 00:57:59;;;;;;;;;;;2.80;73.90;;;;;;5034725;28;20003;-68
2023/04/05 01:00:27;;;;;;;;;;;2.70;74.10;;;;;;5035538;28;19921;-69
2023/04/05 01:02:56;;;;;;;;;;;2.70;74.10;;;;;;5029987;28;19929;-69
2023/04/05 01:05:34;;;;;;;;;;;2.70;74.20;;;;;;5033965;28;19920;-68
2023/04/05 01:08:06;;;;;;;;;;;2.70;74.20;;;;;;5036622;28;20407;-69
2023/04/05 01:10:37;;;;;;;;;;;2.70;74.40;;;;;;5034434;28;20033;-69
2023/04/05 01:13:05;;;;;;;;;;;2.70;74.50;;;;;;5017790;28;19987;-70
2023/04/05 01:15:31;;;;;;;;;;;2.70;74.40;;;;;;5037768;28;20032;-68
2023/04/05 01:18:00;;;;;;;;;;;2.60;74.40;;;;;;5030585;28;20247;-69
2023/04/05 01:20:31;;;;;;;;;;;2.60;74.50;;;;;;5034480;28;20452;-68
2023/04/05 01:23:23;;;;;;;;;;;2.60;74.60;;;;;;5035871;28;19925;-69
2023/04/05 01:26:17;;;;;;;;;;;2.60;74.80;;;;;;5019927;28;19975;-69
2023/04/05 01:28:57;;;;;;;;;;;2.50;75.00;;;;;;5031191;28;19991;-70
2023/04/05 01:31:29;;;;;;;;;;;2.50;74.80;;;;;;5005063;28;19929;-71
2023/04/05 01:33:58;;;;;;;;;;;2.50;74.70;;;;;;5035727;28;20265;-70
2023/04/05 01:36:27;;;;;;;;;;;2.50;74.50;;;;;;5031820;28;19920;-69
2023/04/05 01:38:54;;;;;;;;;;;2.50;74.60;;;;;;5035407;28;19931;-70
2023/04/05 01:41:21;;;;;;;;;;;2.40;74.50;;;;;;5035502;28;19932;-67
2023/04/05 01:43:48;;;;;;;;;;;2.40;74.60;;;;;;5006462;28;19925;-69
2023/04/05 01:46:14;;;;;;;;;;;2.50;74.60;;;;;;5032844;28;20355;-69
2023/04/05 01:48:43;;;;;;;;;;;2.40;74.60;;;;;;5005324;28;19925;-69
2023/04/05 01:51:09;;;;;;;;;;;2.40;74.70;;;;;;5028307;28;19927;-68
2023/04/05 01:53:36;;;;;;;;;;;2.40;74.70;;;;;;5014978;28;19974;-68
2023/04/05 01:56:03;;;;;;;;;;;2.40;74.70;;;;;;5026056;28;19921;-69
2023/04/05 01:58:30;;;;;;;;;;;2.40;74.70;;;;;;5007775;28;20036;-69
2023/04/05 02:00:57;;;;;;;;;;;2.40;74.80;;;;;;5023428;28;19979;-69
2023/04/05 02:03:23;;;;;;;;;;;2.40;75.10;;;;;;5033911;28;19925;-69
2023/04/05 02:05:51;;;;;;;;;;;2.40;75.00;;;;;;5030531;28;19921;-68
2023/04/05 02:08:18;;;;;;;;;;;2.30;75.10;;;;;;5035010;28;20007;-68
2023/04/05 02:10:46;;;;;;;;;;;2.30;75.20;;;;;;5017622;28;19925;-68
2023/04/05 02:13:13;;;;;;;;;;;2.20;75.10;;;;;;5019053;28;20007;-68
2023/04/05 02:15:40;;;;;;;;;;;2.20;75.20;;;;;;5032723;28;20339;-69
2023/04/05 02:18:08;;;;;;;;;;;2.20;75.20;;;;;;5029768;28;20017;-69
2023/04/05 02:20:34;;;;;;;;;;;2.20;74.80;;;;;;5013963;28;20602;-68
2023/04/05 02:23:02;;;;;;;;;;;2.20;74.90;;;;;;5003558;28;19924;-69
2023/04/05 02:25:29;;;;;;;;;;;2.20;74.90;;;;;;5014828;28;20446;-68
2023/04/05 02:27:57;;;;;;;;;;;2.20;74.70;;;;;;5032129;28;20019;-69
2023/04/05 02:30:25;;;;;;;;;;;2.20;74.70;;;;;;5029875;28;19931;-69
2023/04/05 02:32:52;;;;;;;;;;;2.10;74.90;;;;;;5030803;28;19928;-69
2023/04/05 02:35:20;;;;;;;;;;;2.20;74.70;;;;;;5030473;28;19936;-69
2023/04/05 02:37:46;;;;;;;;;;;2.10;74.70;;;;;;5017471;28;19924;-69
2023/04/05 02:40:15;;;;;;;;;;;2.10;74.70;;;;;;5031251;28;19925;-69
2023/04/05 02:42:42;;;;;;;;;;;2.00;74.90;;;;;;5035401;28;20403;-68
2023/04/05 02:45:09;;;;;;;;;;;2.00;74.90;;;;;;5032477;28;19928;-69
2023/04/05 02:47:36;;;;;;;;;;;2.00;74.60;;;;;;5000020;28;19921;-69
2023/04/05 02:50:03;;;;;;;;;;;2.00;74.50;;;;;;5031194;28;19959;-68
2023/04/05 02:52:36;;;;;;;;;;;2.10;74.30;;;;;;5015643;28;19964;-68
2023/04/05 02:55:03;;;;;;;;;;;2.10;73.80;;;;;;5001360;28;19933;-71
2023/04/05 02:57:33;;;;;;;;;;;2.10;73.70;;;;;;5033677;28;19986;-69
2023/04/05 03:00:07;;;;;;;;;;;2.10;73.80;;;;;;5015471;28;19929;-70
2023/04/05 03:02:36;;;;;;;;;;;2.10;73.80;;;;;;5012329;28;19974;-69
2023/04/05 03:05:03;;;;;;;;;;;2.00;73.90;;;;;;5030691;28;19925;-69
2023/04/05 03:07:32;;;;;;;;;;;2.00;74.00;;;;;;5011301;28;20011;-69
2023/04/05 03:10:01;;;;;;;;;;;2.00;74.10;;;;;;5032053;28;19921;-69
2023/04/05 03:12:29;;;;;;;;;;;2.00;74.00;;;;;;5028031;28;19925;-69
2023/04/05 03:14:57;;;;;;;;;;;1.90;74.00;;;;;;5029537;28;19922;-69
2023/04/05 03:17:25;;;;;;;;;;;1.80;74.00;;;;;;5000583;28;20108;-69
2023/04/05 03:19:59;;;;;;;;;;;1.90;74.20;;;;;;5015123;28;20018;-69
2023/04/05 03:22:27;;;;;;;;;;;1.90;74.20;;;;;;5011348;28;20008;-69
2023/04/05 03:24:56;;;;;;;;;;;1.90;74.10;;;;;;5030770;28;19932;-69
2023/04/05 03:27:23;;;;;;;;;;;1.90;74.00;;;;;;5029327;28;19924;-69
2023/04/05 03:30:00;;;;;;;;;;;1.80;73.90;;;;;;5013252;28;19931;-68
2023/04/05 03:32:29;;;;;;;;;;;1.80;73.90;;;;;;5014867;28;20008;-69
2023/04/05 03:35:02;;;;;;;;;;;1.80;74.00;;;;;;5007645;28;19963;-69
2023/04/05 03:37:29;;;;;;;;;;;1.80;74.00;;;;;;5030306;28;19928;-68
2023/04/05 03:40:00;;;;;;;;;;;1.70;74.20;;;;;;5029485;28;19933;-69
2023/04/05 03:42:27;;;;;;;;;;;1.70;74.40;;;;;;5015291;28;19925;-69
2023/04/05 03:44:54;;;;;;;;;;;1.70;74.40;;;;;;5017030;28;19994;-68
2023/04/05 03:47:23;;;;;;;;;;;1.70;74.30;;;;;;5002040;28;19921;-68
2023/04/05 03:49:51;;;;;;;;;;;1.60;74.50;;;;;;5032523;28;19925;-67
2023/04/05 03:52:18;;;;;;;;;;;1.60;74.50;;;;;;5030225;28;19956;-70
2023/04/05 03:54:45;;;;;;;;;;;1.60;74.50;;;;;;5028798;28;19921;-69
2023/04/05 03:57:16;;;;;;;;;;;1.60;74.60;;;;;;5012895;28;19921;-68
2023/04/05 03:59:45;;;;;;;;;;;1.60;74.50;;;;;;5009443;28;20407;-67
2023/04/05 04:02:12;;;;;;;;;;;1.60;74.60;;;;;;5013719;28;20436;-67
2023/04/05 04:04:40;;;;;;;;;;;1.50;74.60;;;;;;5016499;28;19925;-68
2023/04/05 04:07:07;;;;;;;;;;;1.50;74.80;;;;;;5030307;28;19928;-70
2023/04/05 04:09:34;;;;;;;;;;;1.50;74.70;;;;;;5030898;28;19971;-69
2023/04/05 04:12:07;;;;;;;;;;;1.50;74.80;;;;;;5010068;28;19996;-69
2023/04/05 04:14:37;;;;;;;;;;;1.50;74.70;;;;;;5013270;28;20545;-69
2023/04/05 04:17:27;;;;;;;;;;;1.40;74.70;;;;;;5015204;28;19925;-69
2023/04/05 04:20:25;;;;;;;;;;;1.50;74.70;;;;;;5013568;28;20008;-67
2023/04/05 04:23:15;;;;;;;;;;;1.40;74.70;;;;;;5032128;28;19932;-70
2023/04/05 04:26:14;;;;;;;;;;;1.30;74.80;;;;;;5035234;28;19929;-69
2023/04/05 04:28:43;;;;;;;;;;;1.40;74.90;;;;;;5033968;28;20040;-69
2023/04/05 04:31:26;;;;;;;;;;;1.30;74.90;;;;;;5016609;28;19930;-69
2023/04/05 04:34:13;;;;;;;;;;;1.20;75.00;;;;;;5037685;28;19925;-68
2023/04/05 04:36:59;;;;;;;;;;;1.20;75.10;;;;;;5017477;28;19936;-69
2023/04/05 04:39:47;;;;;;;;;;;1.20;74.90;;;;;;5017774;28;20012;-68
2023/04/05 04:42:37;;;;;;;;;;;1.20;75.10;;;;;;5019321;28;19987;-69
2023/04/05 04:45:16;;;;;;;;;;;1.20;75.00;;;;;;5032825;28;19929;-67
2023/04/05 04:47:46;;;;;;;;;;;1.10;75.20;;;;;;5035998;28;19975;-69
2023/04/05 04:50:34;;;;;;;;;;;1.10;75.10;;;;;;5015565;28;20007;-67
2023/04/05 04:53:03;;;;;;;;;;;1.10;75.30;;;;;;5035262;28;19932;-69
2023/04/05 04:55:32;;;;;;;;;;;1.10;75.20;;;;;;5037027;28;19979;-68
2023/04/05 04:57:59;;;;;;;;;;;1.20;75.20;;;;;;5037353;28;19931;-69
2023/04/05 05:00:25;;;;;;;;;;;1.10;75.30;;;;;;5036629;28;19929;-69
2023/04/05 05:02:53;;;;;;;;;;;1.10;75.30;;;;;;5005811;28;19928;-68
2023/04/05 05:05:21;;;;;;;;;;;1.10;75.30;;;;;;5030972;28;19925;-67
2023/04/05 05:07:48;;;;;;;;;;;1.00;75.40;;;;;;5030676;28;20394;-68
2023/04/05 05:10:17;;;;;;;;;;;1.00;75.40;;;;;;5018981;28;19931;-68
2023/04/05 05:12:44;;;;;;;;;;;1.00;75.30;;;;;;5035962;28;19920;-69
2023/04/05 05:15:13;;;;;;;;;;;1.10;75.30;;;;;;5013374;28;19928;-68
2023/04/05 05:17:40;;;;;;;;;;;1.10;75.30;;;;;;5032839;28;19928;-68
2023/04/05 05:20:09;;;;;;;;;;;1.00;75.30;;;;;;5033484;28;20001;-69
2023/04/05 05:22:36;;;;;;;;;;;1.10;75.30;;;;;;5033130;28;19921;-68
2023/04/05 05:25:04;;;;;;;;;;;1.10;75.40;;;;;;5031346;28;19929;-68
2023/04/05 05:27:32;;;;;;;;;;;1.00;75.30;;;;;;5033522;28;19928;-70
2023/04/05 05:29:59;;;;;;;;;;;1.10;75.40;;;;;;5032298;28;19920;-68
2023/04/05 05:32:26;;;;;;;;;;;1.00;75.40;;;;;;5028167;28;19975;-69
2023/04/05 05:34:53;;;;;;;;;;;1.00;75.50;;;;;;5027792;28;19928;-68
2023/04/05 05:37:21;;;;;;;;;;;1.00;75.60;;;;;;5033537;28;19929;-68
2023/04/05 05:39:48;;;;;;;;;;;1.00;75.70;;;;;;5030260;28;19925;-69
2023/04/05 05:42:15;;;;;;;;;;;1.00;75.70;;;;;;5035288;28;19927;-69
2023/04/05 05:44:43;;;;;;;;;;;1.00;75.70;;;;;;5034922;28;19943;-69
2023/04/05 05:47:10;;;;;;;;;;;1.10;75.60;;;;;;5031139;28;19928;-68
2023/04/05 05:49:36;;;;;;;;;;;1.00;75.70;;;;;;5033467;28;19921;-68
2023/04/05 05:52:03;;;;;;;;;;;1.00;75.70;;;;;;5035854;28;19933;-69
2023/04/05 05:54:30;;;;;;;;;;;1.10;75.70;;;;;;5031288;28;19928;-68
2023/04/05 05:56:57;;;;;;;;;;;1.10;75.70;;;;;;5032442;28;20627;-68
2023/04/05 05:59:24;;;;;;;;;;;1.20;75.50;;;;;;5032140;28;19925;-68
2023/04/05 06:01:53;;;;;;;;;;;1.20;75.40;;;;;;5034069;28;19921;-69
2023/04/05 06:04:19;;;;;;;;;;;1.30;75.40;;;;;;5031477;28;19947;-69
2023/04/05 06:06:46;;;;;;;;;;;1.30;75.40;;;;;;5033166;28;19926;-68
2023/04/05 06:09:13;;;;;;;;;;;1.30;75.50;;;;;;5030897;28;19928;-68
2023/04/05 06:11:40;;;;;;;;;;;1.30;75.50;;;;;;5034887;28;19920;-68
2023/04/05 06:14:06;;;;;;;;;;;1.40;75.50;;;;;;5031632;28;19921;-68
2023/04/05 06:16:34;;;;;;;;;;;1.40;75.30;;;;;;5036278;28;19928;-67
2023/04/05 06:19:02;;;;;;;;;;;1.50;75.10;;;;;;5036916;28;19947;-68
2023/04/05 06:21:28;;;;;;;;;;;1.50;75.30;;;;;;5032071;28;19921;-68
2023/04/05 06:23:55;;;;;;;;;;;1.50;75.40;;;;;;5033556;28;19936;-68
2023/04/05 06:26:25;;;;;;;;;;;1.70;75.30;;;;;;5035152;28;19924;-68
2023/04/05 06:28:53;;;;;;;;;;;1.70;74.90;;;;;;5035924;28;19925;-69
2023/04/05 06:31:20;;;;;;;;;;;1.80;75.10;;;;;;5031032;28;20020;-68
2023/04/05 06:33:47;;;;;;;;;;;1.90;74.40;;;;;;5030859;28;20012;-69
2023/04/05 06:36:15;;;;;;;;;;;2.00;74.30;;;;;;5028531;28;19921;-69
2023/04/05 06:38:41;;;;;;;;;;;2.10;74.10;;;;;;5031852;28;19925;-68
2023/04/05 06:41:08;;;;;;;;;;;2.20;74.20;;;;;;5031510;28;19929;-68
2023/04/05 06:43:35;;;;;;;;;;;2.20;73.80;;;;;;5032664;28;20303;-69
2023/04/05 06:46:02;;;;;;;;;;;2.30;73.90;;;;;;5029535;28;19983;-68
2023/04/05 06:48:28;;;;;;;;;;;2.50;73.70;;;;;;5031632;28;20457;-68
2023/04/05 06:50:59;;;;;;;;;;;2.50;73.30;;;;;;5034428;28;19929;-68
2023/04/05 06:53:27;;;;;;;;;;;2.60;73.30;;;;;;5036873;28;19928;-68
2023/04/05 06:55:54;;;;;;;;;;;2.70;73.00;;;;;;5035200;28;20022;-69
2023/04/05 06:58:21;;;;;;;;;;;2.70;73.30;;;;;;5036886;28;20042;-68
2023/04/05 07:00:48;;;;;;;;;;;2.70;72.90;;;;;;5033302;28;19931;-69
2023/04/05 07:03:15;;;;;;;;;;;2.80;72.90;;;;;;5030344;28;19939;-68
2023/04/05 07:05:49;;;;;;;;;;;2.80;72.60;;;;;;5031892;28;19928;-68
2023/04/05 07:08:17;;;;;;;;;;;2.90;72.70;;;;;;5033159;28;20021;-68
2023/04/05 07:10:45;;;;;;;;;;;2.90;72.30;;;;;;5028538;28;20295;-69
2023/04/05 07:13:12;;;;;;;;;;;3.00;72.20;;;;;;5033752;28;19932;-68
2023/04/05 07:15:39;;;;;;;;;;;3.10;72.60;;;;;;5027642;28;19939;-68
2023/04/05 07:18:06;;;;;;;;;;;3.20;72.30;;;;;;5032225;28;19941;-66
2023/04/05 07:20:33;;;;;;;;;;;3.20;72.20;;;;;;5033776;28;20287;-67
2023/04/05 07:22:59;;;;;;;;;;;3.30;71.80;;;;;;5031845;28;19924;-67
2023/04/05 07:25:26;;;;;;;;;;;3.40;71.50;;;;;;5032908;28;19920;-67
2023/04/05 07:27:55;;;;;;;;;;;3.50;71.10;;;;;;5033130;28;19943;-70
2023/04/05 07:30:23;;;;;;;;;;;3.60;71.00;;;;;;5036106;28;20261;-69
2023/04/05 07:32:49;;;;;;;;;;;3.70;70.40;;;;;;5033280;28;19956;-68
2023/04/05 07:35:16;;;;;;;;;;;3.80;69.70;;;;;;5030597;28;19948;-69
2023/04/05 07:37:43;;;;;;;;;;;3.90;69.40;;;;;;5033804;28;19924;-69
2023/04/05 07:40:11;;;;;;;;;;;4.20;69.00;;;;;;5031021;28;19927;-68
2023/04/05 07:42:38;;;;;;;;;;;4.30;68.10;;;;;;5031901;28;19929;-67
2023/04/05 07:45:07;;;;;;;;;;;4.40;67.60;;;;;;5032218;28;19991;-69
2023/04/05 07:47:34;;;;;;;;;;;4.50;66.60;;;;;;5030511;28;20358;-68
2023/04/05 07:50:00;;;;;;;;;;;4.70;65.10;;;;;;5034462;28;20288;-69
2023/04/05 07:52:27;;;;;;;;;;;4.80;63.80;;;;;;5019697;28;19943;-68
2023/04/05 07:54:54;;;;;;;;;;;4.90;64.00;;;;;;5034179;28;19952;-67
2023/04/05 07:57:21;;;;;;;;;;;5.00;63.80;;;;;;5032404;28;20419;-68
2023/04/05 07:59:49;;;;;;;;;;;5.10;62.70;;;;;;5034396;28;19928;-68
2023/04/05 08:02:17;;;;;;;;;;;5.30;62.90;;;;;;5036516;28;19980;-67
2023/04/05 08:04:44;;;;;;;;;;;5.50;61.80;;;;;;5037461;28;19955;-69
2023/04/05 08:07:11;;;;;;;;;;;5.60;61.20;;;;;;5035847;28;19975;-68
2023/04/05 08:09:38;;;;;;;;;;;5.70;62.20;;;;;;5035041;28;20008;-68
2023/04/05 08:12:05;;;;;;;;;;;6.00;61.00;;;;;;5034832;28;19929;-69
2023/04/05 08:14:32;;;;;;;;;;;6.10;59.60;;;;;;5037181;28;20006;-69
2023/04/05 08:16:58;;;;;;;;;;;6.10;59.20;;;;;;5019270;28;19924;-67
2023/04/05 08:19:26;;;;;;;;;;;6.20;58.30;;;;;;5017798;28;19921;-68
2023/04/05 08:21:53;;;;;;;;;;;6.40;58.40;;;;;;5034272;28;19928;-69
2023/04/05 08:24:20;;;;;;;;;;;6.40;58.30;;;;;;5035123;28;19944;-68
2023/04/05 08:26:47;;;;;;;;;;;6.50;58.10;;;;;;5034537;28;20433;-68
2023/04/05 08:29:14;;;;;;;;;;;6.60;57.20;;;;;;5032842;28;20352;-68
2023/04/05 08:31:40;;;;;;;;;;;6.80;56.60;;;;;;5036393;28;19967;-69
2023/04/05 08:34:08;;;;;;;;;;;6.90;57.30;;;;;;5036645;28;19921;-69
2023/04/05 08:36:36;;;;;;;;;;;7.00;57.20;;;;;;5035601;28;19940;-69
2023/04/05 08:39:02;;;;;;;;;;;7.10;55.90;;;;;;5035312;28;19948;-68
2023/04/05 08:41:33;;;;;;;;;;;7.20;56.20;;;;;;5032042;28;20335;-69
2023/04/05 08:44:01;;;;;;;;;;;7.30;55.70;;;;;;5032822;28;19927;-68
2023/04/05 08:46:30;;;;;;;;;;;7.50;55.30;;;;;;5017691;28;20158;-69
2023/04/05 08:48:57;;;;;;;;;;;7.40;54.70;;;;;;5035412;28;19933;-68
2023/04/05 08:51:24;;;;;;;;;;;7.60;54.00;;;;;;5034829;28;19925;-67
2023/04/05 08:53:53;;;;;;;;;;;7.70;52.10;;;;;;5031525;28;20283;-67
2023/04/05 08:56:20;;;;;;;;;;;7.80;51.30;;;;;;5035887;28;19920;-69
2023/04/05 08:58:49;;;;;;;;;;;7.90;50.20;;;;;;5033005;28;19935;-68
2023/04/05 09:01:16;;;;;;;;;;;7.90;50.20;;;;;;5039864;28;19995;-69
2023/04/05 09:03:44;;;;;;;;;;;8.10;50.20;;;;;;5035320;28;20007;-68
2023/04/05 09:06:12;;;;;;;;;;;8.20;49.30;;;;;;5027707;28;19973;-69
2023/04/05 09:08:39;;;;;;;;;;;8.20;50.10;;;;;;5016140;28;19936;-68
2023/04/05 09:11:07;;;;;;;;;;;8.30;49.20;;;;;;5034203;28;19932;-69
2023/04/05 09:13:34;;;;;;;;;;;8.40;49.90;;;;;;5037907;28;19925;-68
2023/04/05 09:16:01;;;;;;;;;;;8.50;49.60;;;;;;5037020;28;20268;-69
2023/04/05 09:18:28;;;;;;;;;;;8.60;48.90;;;;;;5031595;28;19924;-70
2023/04/05 09:21:02;;;;;;;;;;;8.70;48.20;;;;;;5035449;28;19924;-69
2023/04/05 09:23:29;;;;;;;;;;;8.80;47.30;;;;;;5034692;28;20383;-70
2023/04/05 09:25:56;;;;;;;;;;;9.10;46.90;;;;;;5035871;28;19925;-68
2023/04/05 09:28:33;;;;;;;;;;;9.20;46.50;;;;;;5032877;28;19924;-67
2023/04/05 09:31:00;;;;;;;;;;;9.30;46.40;;;;;;5037858;28;19921;-69
2023/04/05 09:33:27;;;;;;;;;;;9.20;46.60;;;;;;5036850;28;19932;-69
2023/04/05 09:35:54;;;;;;;;;;;9.30;46.60;;;;;;5034812;28;19920;-68
2023/04/05 09:38:41;;;;;;;;;;;9.30;46.10;;;;;;5038107;28;19932;-73
2023/04/05 09:41:08;;;;;;;;;;;9.40;45.30;;;;;;5040317;28;19962;-70
2023/04/05 09:43:38;;;;;;;;;;;9.40;45.20;;;;;;5038937;28;19931;-70
2023/04/05 09:46:04;;;;;;;;;;;9.50;44.60;;;;;;5042241;28;20110;-68
2023/04/05 09:48:46;;;;;;;;;;;9.70;44.90;;;;;;5042844;28;19925;-68
2023/04/05 09:51:12;;;;;;;;;;;9.70;44.40;;;;;;5037225;28;19975;-69
2023/04/05 09:53:56;;;;;;;;;;;9.90;43.60;;;;;;5036522;28;19921;-69
2023/04/05 09:56:22;;;;;;;;;;;9.90;43.60;;;;;;5029411;28;19955;-68
2023/04/05 09:58:52;;;;;;;;;;;10.10;43.80;;;;;;5035500;28;19947;-68
2023/04/05 10:01:19;;;;;;;;;;;10.10;43.40;;;;;;5036985;28;19925;-68
2023/04/05 10:03:46;;;;;;;;;;;10.30;43.10;;;;;;5035925;28;19924;-66
2023/04/05 10:06:13;;;;;;;;;;;10.50;43.20;;;;;;5032488;28;19924;-68
2023/04/05 10:08:40;;;;;;;;;;;10.60;43.60;;;;;;5033231;28;19920;-67
2023/04/05 10:11:07;;;;;;;;;;;10.40;41.80;;;;;;5028072;28;20007;-68
2023/04/05 10:13:35;;;;;;;;;;;10.50;41.80;;;;;;5034953;28;19921;-69
2023/04/05 10:16:04;;;;;;;;;;;10.60;41.90;;;;;;5034183;28;19948;-69
2023/04/05 10:18:40;;;;;;;;;;;10.70;42.40;;;;;;5037300;28;20323;-68
2023/04/05 10:21:11;;;;;;;;;;;10.80;42.50;;;;;;5030330;28;19936;-69
2023/04/05 10:23:39;;;;;;;;;;;10.90;42.10;;;;;;5036819;28;20249;-68
2023/04/05 10:26:09;;;;;;;;;;;11.10;42.00;;;;;;5031986;28;19925;-67
2023/04/05 10:28:36;;;;;;;;;;;11.10;41.30;;;;;;5033476;28;19944;-68
2023/04/05 10:31:11;;;;;;;;;;;11.20;40.50;;;;;;5033306;28;19975;-68
2023/04/05 10:33:40;;;;;;;;;;;11.20;41.30;;;;;;5032844;28;20477;-68
2023/04/05 10:36:17;;;;;;;;;;;11.30;41.30;;;;;;5031443;28;19924;-66
2023/04/05 10:38:49;;;;;;;;;;;11.40;41.10;;;;;;5028430;28;19920;-68
2023/04/05 10:41:16;;;;;;;;;;;11.40;39.80;;;;;;5029075;28;19936;-68
2023/04/05 10:43:44;;;;;;;;;;;11.40;40.00;;;;;;5033026;28;20005;-69
2023/04/05 10:46:13;;;;;;;;;;;11.40;39.50;;;;;;5034489;28;20455;-68
2023/04/05 10:48:44;;;;;;;;;;;11.40;39.80;;;;;;5035473;28;19925;-68
2023/04/05 10:51:12;;;;;;;;;;;11.50;40.00;;;;;;5030368;28;19995;-66
2023/04/05 10:53:39;;;;;;;;;;;11.60;39.10;;;;;;5034983;28;19924;-68
2023/04/05 10:56:06;;;;;;;;;;;11.70;40.00;;;;;;5028327;28;19977;-67
2023/04/05 10:58:33;;;;;;;;;;;11.70;39.40;;;;;;5031057;28;19920;-69
2023/04/05 11:01:00;;;;;;;;;;;11.70;39.20;;;;;;5034780;28;19940;-68
2023/04/05 11:03:47;;;;;;;;;;;11.70;39.70;;;;;;5032402;28;20039;-70
2023/04/05 11:06:18;;;;;;;;;;;11.70;39.30;;;;;;5029571;28;19940;-69
2023/04/05 11:08:46;;;;;;;;;;;11.60;39.10;;;;;;5030758;28;19984;-68
2023/04/05 11:11:15;;;;;;;;;;;11.20;38.20;;;;;;5031710;28;19925;-68
2023/04/05 11:13:49;;;;;;;;;;;11.20;39.00;;;;;;5032493;28;19932;-69
2023/04/05 11:16:16;;;;;;;;;;;11.30;39.40;;;;;;5031787;28;19939;-70
2023/04/05 11:18:45;;;;;;;;;;;11.60;39.80;;;;;;5032999;28;19921;-69
2023/04/05 11:21:19;;;;;;;;;;;11.80;39.30;;;;;;5032589;28;19929;-69
2023/04/05 11:24:11;;;;;;;;;;;12.00;40.30;;;;;;5033971;28;19947;-69
2023/04/05 11:27:01;;;;;;;;;;;12.10;40.20;;;;;;5003540;28;19968;-67
2023/04/05 11:29:53;;;;;;;;;;;12.20;39.10;;;;;;5012952;28;19928;-69
2023/04/05 11:32:20;;;;;;;;;;;12.20;39.20;;;;;;5027229;28;19929;-69
2023/04/05 11:34:58;;;;;;;;;;;11.90;39.10;;;;;;5031936;28;19925;-68
2023/04/05 11:37:46;;;;;;;;;;;11.90;39.10;;;;;;5033500;28;20422;-68
2023/04/05 11:40:26;;;;;;;;;;;11.90;38.20;;;;;;5032911;28;19921;-68
2023/04/05 11:42:58;;;;;;;;;;;11.70;38.50;;;;;;5031321;28;20019;-68
2023/04/05 11:45:25;;;;;;;;;;;11.70;37.90;;;;;;5028153;28;20368;-68
2023/04/05 11:47:51;;;;;;;;;;;11.50;38.10;;;;;;5029704;28;19921;-68
2023/04/05 11:50:18;;;;;;;;;;;11.50;38.70;;;;;;5030925;28;19920;-68
2023/04/05 11:53:06;;;;;;;;;;;11.60;36.90;;;;;;5034934;28;19925;-68
2023/04/05 11:55:33;;;;;;;;;;;11.70;37.40;;;;;;5032701;28;19921;-68
2023/04/05 11:58:00;;;;;;;;;;;11.70;37.00;;;;;;5016140;28;19925;-68
2023/04/05 12:00:27;;;;;;;;;;;11.80;37.00;;;;;;5031165;28;19928;-68
2023/04/05 12:02:55;;;;;;;;;;;11.90;38.20;;;;;;5014396;28;20427;-68
2023/04/05 12:05:22;;;;;;;;;;;11.90;38.10;;;;;;5028922;28;19921;-68
2023/04/05 12:07:54;;;;;;;;;;;12.00;38.70;;;;;;5035308;28;19927;-67
2023/04/05 12:10:21;;;;;;;;;;;12.00;38.70;;;;;;5035127;28;19931;-68
2023/04/05 12:12:48;;;;;;;;;;;12.10;39.20;;;;;;5032498;28;19998;-68
2023/04/05 12:15:17;;;;;;;;;;;11.90;38.80;;;;;;5028149;28;19928;-69
2023/04/05 12:17:45;;;;;;;;;;;11.70;39.40;;;;;;5033382;28;19927;-69
2023/04/05 12:20:13;;;;;;;;;;;11.40;40.00;;;;;;5031474;28;20463;-68
2023/04/05 12:22:41;;;;;;;;;;;11.30;37.90;;;;;;5033286;28;21178;-67
2023/04/05 12:25:09;;;;;;;;;;;11.30;37.20;;;;;;5034346;28;19925;-67
2023/04/05 12:27:36;;;;;;;;;;;11.40;37.40;;;;;;5028246;28;19921;-67
2023/04/05 12:30:10;;;;;;;;;;;11.50;38.50;;;;;;5033422;28;19921;-70
2023/04/05 12:32:40;;;;;;;;;;;11.60;38.50;;;;;;5028832;28;19921;-68
2023/04/05 12:35:10;;;;;;;;;;;11.60;38.70;;;;;;5014136;28;19925;-69
2023/04/05 12:37:37;;;;;;;;;;;11.60;38.90;;;;;;5033602;28;19925;-68
2023/04/05 12:40:05;;;;;;;;;;;11.70;38.70;;;;;;5032088;28;19931;-68
2023/04/05 12:42:35;;;;;;;;;;;11.60;38.30;;;;;;5031493;28;19932;-68
2023/04/05 12:45:03;;;;;;;;;;;11.50;37.80;;;;;;5031500;28;20038;-68
2023/04/05 12:47:29;;;;;;;;;;;11.30;38.80;;;;;;5033984;28;20159;-69
2023/04/05 12:49:56;;;;;;;;;;;11.30;38.00;;;;;;5018088;28;19953;-69
2023/04/05 12:52:26;;;;;;;;;;;11.20;37.90;;;;;;5032638;28;20682;-68
2023/04/05 12:54:53;;;;;;;;;;;11.30;38.10;;;;;;5034848;28;19924;-68
2023/04/05 12:57:28;;;;;;;;;;;11.40;38.90;;;;;;5034798;28;20292;-67
2023/04/05 12:59:56;;;;;;;;;;;11.40;39.20;;;;;;5037872;28;19924;-68
2023/04/05 13:02:22;;;;;;;;;;;11.50;38.80;;;;;;5028988;28;19925;-69
2023/04/05 13:04:49;;;;;;;;;;;11.40;39.00;;;;;;5031552;28;19932;-69
2023/04/05 13:07:16;;;;;;;;;;;11.40;38.50;;;;;;5034506;28;19933;-68
2023/04/05 13:09:42;;;;;;;;;;;11.50;38.10;;;;;;5033903;28;20279;-69
2023/04/05 13:12:09;;;;;;;;;;;11.50;37.70;;;;;;5035102;28;19925;-69
2023/04/05 13:14:36;;;;;;;;;;;11.50;37.40;;;;;;5034917;28;19925;-69
2023/04/05 13:17:04;;;;;;;;;;;11.40;37.80;;;;;;5033731;28;20012;-69
2023/04/05 13:19:31;;;;;;;;;;;11.40;38.30;;;;;;5035024;28;20016;-68
2023/04/05 13:21:58;;;;;;;;;;;11.40;38.50;;;;;;5034203;28;19932;-68
2023/04/05 13:24:24;;;;;;;;;;;11.40;38.50;;;;;;5038015;28;20028;-68
2023/04/05 13:26:51;;;;;;;;;;;11.30;37.40;;;;;;5033910;28;19973;-69
2023/04/05 13:29:18;;;;;;;;;;;11.30;37.40;;;;;;5035167;28;20065;-68
2023/04/05 13:31:44;;;;;;;;;;;11.30;37.70;;;;;;5033227;28;19921;-67
2023/04/05 13:34:13;;;;;;;;;;;11.40;37.80;;;;;;5034635;28;20313;-69
2023/04/05 13:36:39;;;;;;;;;;;11.30;38.30;;;;;;5033613;28;19928;-68
2023/04/05 13:39:06;;;;;;;;;;;11.30;38.20;;;;;;5030972;28;19921;-69
2023/04/05 13:41:33;;;;;;;;;;;11.20;37.50;;;;;;5034346;28;20376;-69
2023/04/05 13:44:00;;;;;;;;;;;11.20;37.80;;;;;;5035900;28;19929;-69
2023/04/05 13:46:26;;;;;;;;;;;11.10;37.50;;;;;;5034982;28;19920;-69
2023/04/05 13:48:53;;;;;;;;;;;11.10;38.00;;;;;;5038730;28;20043;-69
2023/04/05 13:51:21;;;;;;;;;;;11.10;38.80;;;;;;5034903;28;20372;-69
2023/04/05 13:53:48;;;;;;;;;;;11.10;38.40;;;;;;5033818;28;19931;-69
2023/04/05 13:56:15;;;;;;;;;;;11.00;37.80;;;;;;5034746;28;19925;-69
2023/04/05 13:58:41;;;;;;;;;;;10.90;38.20;;;;;;5035311;28;19929;-68
2023/04/05 14:01:08;;;;;;;;;;;11.00;38.50;;;;;;5034553;28;20451;-69
2023/04/05 14:03:35;;;;;;;;;;;11.00;38.40;;;;;;5035409;28;19971;-68
2023/04/05 14:06:01;;;;;;;;;;;11.10;38.30;;;;;;5034839;28;19921;-67
2023/04/05 14:08:30;;;;;;;;;;;10.90;36.70;;;;;;5033663;28;19920;-68
2023/04/05 14:10:56;;;;;;;;;;;10.90;37.10;;;;;;5033411;28;19927;-69
2023/04/05 14:13:23;;;;;;;;;;;10.90;37.30;;;;;;5037268;28;20403;-68
2023/04/05 14:15:50;;;;;;;;;;;11.00;37.60;;;;;;5036654;28;19931;-69
2023/04/05 14:18:16;;;;;;;;;;;11.00;38.20;;;;;;5036307;28;20759;-68
2023/04/05 14:20:43;;;;;;;;;;;11.00;38.40;;;;;;5035424;28;19963;-68
2023/04/05 14:23:10;;;;;;;;;;;11.00;36.90;;;;;;5034665;28;19925;-69
2023/04/05 14:25:38;;;;;;;;;;;11.00;37.50;;;;;;5038302;28;20016;-69
2023/04/05 14:28:05;;;;;;;;;;;11.10;37.90;;;;;;5034690;28;19921;-68
2023/04/05 14:30:32;;;;;;;;;;;11.10;37.60;;;;;;5034842;28;20301;-68
2023/04/05 14:32:59;;;;;;;;;;;11.20;38.10;;;;;;5034237;28;19929;-69
2023/04/05 14:35:26;;;;;;;;;;;11.20;37.70;;;;;;5034378;28;21270;-69
2023/04/05 14:37:53;;;;;;;;;;;11.20;38.00;;;;;;5035185;28;20394;-69